createdAt,value
2023-05-03T00:01:13.954Z,50.12
2023-05-03T00:03:40.307Z,50.27
2023-05-03T00:06:11.439Z,49.98
2023-05-03T00:08:37.860Z,50.30
2023-05-03T00:11:04.232Z,50.51
2023-05-03T00:13:30.789Z,50.38
2023-05-03T00:15:57.137Z,50.93
2023-05-03T00:18:23.957Z,51.08
2023-05-03T00:20:51.291Z,51.29
2023-05-03T00:23:17.651Z,51.44
2023-05-03T00:25:44.613Z,51.26
2023-05-03T00:28:11.026Z,51.50
2023-05-03T00:30:37.413Z,51.97
2023-05-03T00:33:03.795Z,51.65
2023-05-03T00:35:30.273Z,51.88
2023-05-03T00:37:56.626Z,51.84
2023-05-03T00:40:23.028Z,52.17
2023-05-03T00:42:49.462Z,51.79
2023-05-03T00:45:15.944Z,52.13
2023-05-03T00:47:43.442Z,52.40
2023-05-03T00:50:11.836Z,52.35
2023-05-03T00:52:39.330Z,52.05
2023-05-03T00:55:07.493Z,52.18
2023-05-03T00:57:33.830Z,52.12
2023-05-03T01:00:00.716Z,52.50
2023-05-03T01:02:28.211Z,52.19
2023-05-03T01:05:02.407Z,52.42
2023-05-03T01:07:42.688Z,52.08
2023-05-03T01:10:29.701Z,52.12
2023-05-03T01:13:06.699Z,52.55
2023-05-03T01:15:46.139Z,52.69
2023-05-03T01:18:22.515Z,52.50
2023-05-03T01:20:51.229Z,52.67
2023-05-03T01:23:36.364Z,52.82
2023-05-03T01:26:18.106Z,52.79
2023-05-03T01:28:44.517Z,52.64
2023-05-03T01:31:11.270Z,53.04
2023-05-03T01:33:47.223Z,52.85
2023-05-03T01:36:18.251Z,53.21
2023-05-03T01:38:44.932Z,53.25
2023-05-03T01:41:13.800Z,53.02
2023-05-03T01:43:40.615Z,53.18
2023-05-03T01:46:07.493Z,53.42
2023-05-03T01:48:34.092Z,53.56
2023-05-03T01:51:03.385Z,53.39
2023-05-03T01:53:29.743Z,53.13
2023-05-03T01:55:56.087Z,53.21
2023-05-03T01:58:22.417Z,53.33
2023-05-03T02:00:48.841Z,53.66
2023-05-03T02:03:17.868Z,53.55
2023-05-03T02:05:44.217Z,53.48
2023-05-03T02:08:12.299Z,53.07
2023-05-03T02:10:38.649Z,53.42
2023-05-03T02:13:05.029Z,53.38
2023-05-03T02:15:31.940Z,52.69
2023-05-03T02:17:58.685Z,53.15
2023-05-03T02:20:25.157Z,52.99
2023-05-03T02:22:51.568Z,52.62
2023-05-03T02:25:17.892Z,52.81
2023-05-03T02:27:44.231Z,52.76
2023-05-03T02:30:10.985Z,52.83
2023-05-03T02:32:37.388Z,52.64
2023-05-03T02:35:04.019Z,52.91
2023-05-03T02:37:30.448Z,53.08
2023-05-03T02:39:57.264Z,53.13
2023-05-03T02:42:24.005Z,53.29
2023-05-03T02:44:50.351Z,53.50
2023-05-03T02:47:16.702Z,53.69
2023-05-03T02:49:43.098Z,53.53
2023-05-03T02:52:09.553Z,53.70
2023-05-03T02:54:35.982Z,54.15
2023-05-03T02:57:02.992Z,53.92
2023-05-03T02:59:29.700Z,54.29
2023-05-03T03:01:56.082Z,54.29
2023-05-03T03:04:22.443Z,54.05
2023-05-03T03:06:49.301Z,54.39
2023-05-03T03:09:15.682Z,54.37
2023-05-03T03:11:42.140Z,54.05
2023-05-03T03:14:08.656Z,54.35
2023-05-03T03:16:35.199Z,54.64
2023-05-03T03:19:01.572Z,54.34
2023-05-03T03:21:28.939Z,54.42
2023-05-03T03:23:56.452Z,54.34
2023-05-03T03:26:22.923Z,54.63
2023-05-03T03:28:49.289Z,54.73
2023-05-03T03:31:15.871Z,54.86
2023-05-03T03:33:42.354Z,55.10
2023-05-03T03:36:10.167Z,54.85
2023-05-03T03:38:36.574Z,54.94
2023-05-03T03:41:03.028Z,55.13
2023-05-03T03:43:29.392Z,55.22
2023-05-03T03:45:55.811Z,55.01
2023-05-03T03:48:22.200Z,55.12
2023-05-03T03:50:49.428Z,55.35
2023-05-03T03:53:15.951Z,55.52
2023-05-03T03:55:54.218Z,55.20
2023-05-03T03:58:20.614Z,55.30
2023-05-03T04:00:47.426Z,55.68
2023-05-03T04:03:13.937Z,55.63
2023-05-03T04:05:40.883Z,55.60
2023-05-03T04:08:07.261Z,55.92
2023-05-03T04:10:33.656Z,55.69
2023-05-03T04:13:00.105Z,55.85
2023-05-03T04:15:26.684Z,56.04
2023-05-03T04:17:53.153Z,56.25
2023-05-03T04:20:20.059Z,56.48
2023-05-03T04:22:46.485Z,56.47
2023-05-03T04:25:17.042Z,56.23
2023-05-03T04:27:44.895Z,56.36
2023-05-03T04:30:14.458Z,56.35
2023-05-03T04:32:42.489Z,56.47
2023-05-03T04:35:10.484Z,56.73
2023-05-03T04:37:37.924Z,56.63
2023-05-03T04:40:08.301Z,56.67
2023-05-03T04:42:35.288Z,56.71
2023-05-03T04:45:06.742Z,56.87
2023-05-03T04:47:33.432Z,56.91
2023-05-03T04:49:59.823Z,57.22
2023-05-03T04:52:27.209Z,56.96
2023-05-03T04:54:54.294Z,57.53
2023-05-03T04:57:20.753Z,57.85
2023-05-03T04:59:47.284Z,57.46
2023-05-03T05:02:13.620Z,57.80
2023-05-03T05:04:39.994Z,58.09
2023-05-03T05:07:08.667Z,57.96
2023-05-03T05:09:35.317Z,57.98
2023-05-03T05:12:01.913Z,57.84
2023-05-03T05:14:30.453Z,57.85
2023-05-03T05:17:01.584Z,57.61
2023-05-03T05:19:28.064Z,57.44
2023-05-03T05:21:54.469Z,57.29
2023-05-03T05:24:20.915Z,57.27
2023-05-03T05:26:47.387Z,56.86
2023-05-03T05:29:13.758Z,57.03
2023-05-03T05:31:40.178Z,56.34
2023-05-03T05:34:06.698Z,56.21
2023-05-03T05:36:33.306Z,56.19
2023-05-03T05:38:59.752Z,55.89
2023-05-03T05:41:26.287Z,55.51
2023-05-03T05:43:53.202Z,55.41
2023-05-03T05:46:22.765Z,55.10
2023-05-03T05:48:51.179Z,55.06
2023-05-03T05:51:17.705Z,54.80
2023-05-03T05:53:44.284Z,54.66
2023-05-03T05:56:11.570Z,54.43
2023-05-03T05:58:38.409Z,54.61
2023-05-03T06:01:05.438Z,54.48
2023-05-03T06:03:33.913Z,54.24
2023-05-03T06:06:00.862Z,53.86
2023-05-03T06:08:27.332Z,53.27
2023-05-03T06:10:53.812Z,53.30
2023-05-03T06:13:20.153Z,53.41
2023-05-03T06:15:46.700Z,53.33
2023-05-03T06:18:13.275Z,52.78
2023-05-03T06:20:39.971Z,52.73
2023-05-03T06:23:06.301Z,52.66
2023-05-03T06:25:32.698Z,52.65
2023-05-03T06:27:59.060Z,52.18
2023-05-03T06:30:25.816Z,52.04
2023-05-03T06:32:52.361Z,52.11
2023-05-03T06:35:19.568Z,52.11
2023-05-03T06:37:46.106Z,52.12
2023-05-03T06:40:12.706Z,52.35
2023-05-03T06:42:39.050Z,51.93
2023-05-03T06:45:06.038Z,51.78
2023-05-03T06:47:32.905Z,51.74
2023-05-03T06:49:59.348Z,51.75
2023-05-03T06:52:25.752Z,51.11
2023-05-03T06:54:53.445Z,51.17
2023-05-03T06:57:19.873Z,50.53
2023-05-03T06:59:46.218Z,50.19
2023-05-03T07:02:12.606Z,49.60
2023-05-03T07:04:39.675Z,49.86
2023-05-03T07:07:06.511Z,49.08
2023-05-03T07:09:42.693Z,48.74
2023-05-03T07:12:10.246Z,48.44
2023-05-03T07:14:36.697Z,47.97
2023-05-03T07:17:03.139Z,47.80
2023-05-03T07:19:30.528Z,47.87
2023-05-03T07:21:56.924Z,47.78
2023-05-03T07:24:25.781Z,47.66
2023-05-03T07:26:53.733Z,47.88
2023-05-03T07:29:21.260Z,47.56
2023-05-03T07:31:47.965Z,48.03
2023-05-03T07:34:14.377Z,47.78
2023-05-03T07:36:41.110Z,47.37
2023-05-03T07:39:07.870Z,46.70
2023-05-03T07:41:34.305Z,46.29
2023-05-03T07:44:00.840Z,46.38
2023-05-03T07:46:27.401Z,45.90
2023-05-03T07:48:54.014Z,46.00
2023-05-03T07:51:21.108Z,46.21
2023-05-03T07:53:47.697Z,46.39
2023-05-03T07:56:14.157Z,46.47
2023-05-03T07:58:41.618Z,46.16
2023-05-03T08:01:10.073Z,45.50
2023-05-03T08:03:36.725Z,45.02
2023-05-03T08:06:03.564Z,45.22
2023-05-03T08:08:32.191Z,45.07
2023-05-03T08:10:58.691Z,44.04
2023-05-03T08:13:25.214Z,44.43
2023-05-03T08:15:52.190Z,44.27
2023-05-03T08:18:19.263Z,43.89
2023-05-03T08:20:47.101Z,43.86
2023-05-03T08:23:13.494Z,43.08
2023-05-03T08:25:39.927Z,42.80
2023-05-03T08:28:07.097Z,42.63
2023-05-03T08:30:33.612Z,42.39
2023-05-03T08:33:00.074Z,42.46
2023-05-03T08:35:28.023Z,42.61
2023-05-03T08:37:54.586Z,42.27
2023-05-03T08:40:22.187Z,42.01
2023-05-03T08:42:50.025Z,42.06
2023-05-03T08:45:16.980Z,42.00
2023-05-03T08:47:47.325Z,41.97
2023-05-03T08:50:15.424Z,42.04
2023-05-03T08:52:43.476Z,42.09
2023-05-03T08:55:11.213Z,42.52
2023-05-03T08:57:37.857Z,42.09
2023-05-03T09:00:12.579Z,42.45
2023-05-03T09:02:40.115Z,42.14
2023-05-03T09:05:15.862Z,42.35
2023-05-03T09:08:00.938Z,42.23
2023-05-03T09:10:27.298Z,41.44
2023-05-03T09:13:01.114Z,41.31
2023-05-03T09:15:31.270Z,41.08
2023-05-03T09:18:06.866Z,41.44
2023-05-03T09:20:37.637Z,41.48
2023-05-03T09:23:04.119Z,40.99
2023-05-03T09:25:51.670Z,40.72
2023-05-03T09:28:19.954Z,40.16
2023-05-03T09:30:47.578Z,40.38
2023-05-03T09:33:22.028Z,39.72
2023-05-03T09:35:58.781Z,40.05
2023-05-03T09:38:30.611Z,39.57
2023-05-03T09:40:57.794Z,39.18
2023-05-03T09:43:24.404Z,39.25
2023-05-03T09:45:51.204Z,39.65
2023-05-03T09:48:18.907Z,39.74
2023-05-03T09:50:45.624Z,39.36
2023-05-03T09:53:12.925Z,39.27
2023-05-03T09:55:40.577Z,39.90
2023-05-03T09:58:07.766Z,39.15
2023-05-03T10:00:39.137Z,39.25
2023-05-03T10:03:11.252Z,39.55
2023-05-03T10:05:47.694Z,39.64
2023-05-03T10:08:28.125Z,39.34
2023-05-03T10:10:55.191Z,39.37
2023-05-03T10:13:23.148Z,39.20
2023-05-03T10:16:00.583Z,39.05
2023-05-03T10:18:31.927Z,38.55
2023-05-03T10:21:04.954Z,38.99
2023-05-03T10:23:31.298Z,38.18
2023-05-03T10:26:13.532Z,38.39
2023-05-03T10:28:40.278Z,38.38
2023-05-03T10:31:07.200Z,38.28
2023-05-03T10:33:37.310Z,38.26
2023-05-03T10:36:10.496Z,37.93
2023-05-03T10:38:37.942Z,37.87
2023-05-03T10:41:06.657Z,37.78
2023-05-03T10:43:36.412Z,38.32
2023-05-03T10:46:04.580Z,37.95
2023-05-03T10:48:34.918Z,37.79
2023-05-03T10:51:30.695Z,37.87
2023-05-03T10:53:57.172Z,37.58
2023-05-03T10:56:23.987Z,36.95
2023-05-03T10:58:55.624Z,37.04
2023-05-03T11:01:24.504Z,36.69
2023-05-03T11:04:12.540Z,36.85
2023-05-03T11:06:45.993Z,36.23
2023-05-03T11:09:14.815Z,36.32
2023-05-03T11:11:42.077Z,36.21
2023-05-03T11:14:09.942Z,36.35
2023-05-03T11:16:40.383Z,36.01
2023-05-03T11:19:07.664Z,36.07
2023-05-03T11:21:34.244Z,35.98
2023-05-03T11:24:01.772Z,36.05
2023-05-03T11:26:28.263Z,35.77
2023-05-03T11:28:54.900Z,35.63
2023-05-03T11:31:22.562Z,35.33
2023-05-03T11:33:49.578Z,35.63
2023-05-03T11:36:16.266Z,35.82
2023-05-03T11:38:42.659Z,36.08
2023-05-03T11:41:14.641Z,36.36
2023-05-03T11:43:42.794Z,36.33
2023-05-03T11:46:10.198Z,35.85
2023-05-03T11:48:38.375Z,35.65
2023-05-03T11:51:11.041Z,36.06
2023-05-03T11:53:39.647Z,35.51
2023-05-03T11:56:08.701Z,34.84
2023-05-03T11:58:35.946Z,34.62
2023-05-03T12:01:03.545Z,35.21
2023-05-03T12:03:33.323Z,35.38
2023-05-03T12:06:02.254Z,35.61
2023-05-03T12:08:31.542Z,35.24
2023-05-03T12:11:02.893Z,35.45
2023-05-03T12:13:39.226Z,34.60
2023-05-03T12:16:13.363Z,34.94
2023-05-03T12:18:51.448Z,34.94
2023-05-03T12:23:50.496Z,34.51
2023-05-03T12:26:20.599Z,34.27
2023-05-03T12:28:48.937Z,34.32
2023-05-03T12:31:17.924Z,34.40
2023-05-03T12:33:53.897Z,34.10
2023-05-03T12:36:37.106Z,35.66
2023-05-03T12:39:08.982Z,33.93
2023-05-03T12:44:09.817Z,33.99
2023-05-03T12:46:38.223Z,34.27
2023-05-03T12:49:07.496Z,34.26
2023-05-03T12:51:35.385Z,34.10
2023-05-03T12:54:02.673Z,33.86
2023-05-03T12:56:32.569Z,33.54
2023-05-03T12:59:23.275Z,32.87
2023-05-03T13:03:09.377Z,34.83
2023-05-03T13:04:57.207Z,33.52
2023-05-03T13:07:27.848Z,33.13
2023-05-03T13:12:27.398Z,33.04
2023-05-03T13:14:55.035Z,33.05
2023-05-03T13:17:23.033Z,33.53
2023-05-03T13:19:51.472Z,33.20
2023-05-03T13:22:18.539Z,32.76
2023-05-03T13:24:47.226Z,32.80
2023-05-03T13:27:14.181Z,33.29
2023-05-03T13:29:40.928Z,32.90
2023-05-03T13:32:08.855Z,32.63
2023-05-03T13:34:36.095Z,32.74
2023-05-03T13:37:04.427Z,32.93
2023-05-03T13:39:31.784Z,32.29
2023-05-03T13:41:58.214Z,32.04
2023-05-03T13:44:27.432Z,32.07
2023-05-03T13:46:54.017Z,32.15
2023-05-03T13:49:20.633Z,32.54
2023-05-03T13:51:47.244Z,32.32
2023-05-03T13:54:13.671Z,32.41
2023-05-03T13:56:43.316Z,32.42
2023-05-03T13:59:11.944Z,32.71
2023-05-03T14:01:38.461Z,32.53
2023-05-03T14:04:05.456Z,31.94
2023-05-03T14:06:33.488Z,31.92
2023-05-03T14:09:01.899Z,32.16
2023-05-03T14:11:30.372Z,32.24
2023-05-03T14:13:58.427Z,31.94
2023-05-03T14:16:39.962Z,31.81
2023-05-03T14:19:07.390Z,32.32
2023-05-03T14:21:35.002Z,32.22
2023-05-03T14:24:01.784Z,31.98
2023-05-03T14:26:29.545Z,32.31
2023-05-03T14:28:56.169Z,32.11
2023-05-03T14:31:22.732Z,32.07
2023-05-03T14:33:49.501Z,31.88
2023-05-03T14:36:15.939Z,31.59
2023-05-03T14:38:42.434Z,31.60
2023-05-03T14:41:09.241Z,31.63
2023-05-03T14:43:35.780Z,31.85
2023-05-03T14:46:02.262Z,31.65
2023-05-03T14:48:28.689Z,31.37
2023-05-03T14:50:56.042Z,31.39
2023-05-03T14:53:23.287Z,31.48
2023-05-03T14:55:49.941Z,31.63
2023-05-03T14:58:16.333Z,31.50
2023-05-03T15:00:43.317Z,31.27
2023-05-03T15:03:11.806Z,31.70
2023-05-03T15:05:49.333Z,32.30
2023-05-03T15:08:19.212Z,31.41
2023-05-03T15:10:46.529Z,31.02
2023-05-03T15:13:13.686Z,31.42
2023-05-03T15:15:43.313Z,31.39
2023-05-03T15:18:10.018Z,30.73
2023-05-03T15:20:36.527Z,30.77
2023-05-03T15:23:04.305Z,30.36
2023-05-03T15:25:31.428Z,30.34
2023-05-03T15:27:57.987Z,30.24
2023-05-03T15:30:25.476Z,30.13
2023-05-03T15:32:51.962Z,30.63
2023-05-03T15:35:18.390Z,30.98
2023-05-03T15:37:44.843Z,30.48
2023-05-03T15:40:14.423Z,30.06
2023-05-03T15:42:41.063Z,30.10
2023-05-03T15:45:09.847Z,30.27
2023-05-03T15:47:36.669Z,29.74
2023-05-03T15:50:03.786Z,29.67
2023-05-03T15:52:31.083Z,30.20
2023-05-03T15:54:57.546Z,30.07
2023-05-03T15:57:24.429Z,30.13
2023-05-03T15:59:50.788Z,30.62
2023-05-03T16:02:17.286Z,30.24
2023-05-03T16:04:44.391Z,29.93
2023-05-03T16:07:11.284Z,30.57
2023-05-03T16:09:37.698Z,30.10
2023-05-03T16:12:04.375Z,29.50
2023-05-03T16:14:30.853Z,29.39
2023-05-03T16:16:57.408Z,29.63
2023-05-03T16:19:23.998Z,29.54
2023-05-03T16:21:50.595Z,29.09
2023-05-03T16:24:17.140Z,29.34
2023-05-03T16:26:43.649Z,29.18
2023-05-03T16:29:19.327Z,29.31
2023-05-03T16:31:47.079Z,29.22
2023-05-03T16:34:14.159Z,29.02
2023-05-03T16:36:43.021Z,29.02
2023-05-03T16:39:11.342Z,28.30
2023-05-03T16:41:38.682Z,27.84
2023-05-03T16:44:06.313Z,27.76
2023-05-03T16:46:37.969Z,27.98
2023-05-03T16:49:06.367Z,27.49
2023-05-03T16:51:33.895Z,27.29
2023-05-03T16:54:02.897Z,27.40
2023-05-03T16:56:31.095Z,27.57
2023-05-03T16:58:58.931Z,27.61
2023-05-03T17:01:25.443Z,28.09
2023-05-03T17:03:52.059Z,27.31
2023-05-03T17:06:18.842Z,26.58
2023-05-03T17:08:45.459Z,26.17
2023-05-03T17:11:14.359Z,26.23
2023-05-03T17:13:41.030Z,26.27
2023-05-03T17:16:09.771Z,26.70
2023-05-03T17:18:37.713Z,26.43
2023-05-03T17:21:04.960Z,26.47
2023-05-03T17:23:39.291Z,26.54
2023-05-03T17:26:08.628Z,26.95
2023-05-03T17:28:35.918Z,26.51
2023-05-03T17:31:03.280Z,26.43
2023-05-03T17:33:30.026Z,26.70
2023-05-03T17:35:56.856Z,26.54
2023-05-03T17:38:23.380Z,26.85
2023-05-03T17:40:50.031Z,26.88
2023-05-03T17:43:17.813Z,27.13
2023-05-03T17:45:47.250Z,27.19
2023-05-03T17:48:14.486Z,26.93
2023-05-03T17:50:43.022Z,26.74
2023-05-03T17:53:09.502Z,27.15
2023-05-03T17:55:38.046Z,26.99
2023-05-03T17:58:35.846Z,27.53
2023-05-03T18:01:02.367Z,27.24
2023-05-03T18:03:29.084Z,26.93
2023-05-03T18:05:55.581Z,27.22
2023-05-03T18:08:25.786Z,27.08
2023-05-03T18:10:52.204Z,27.05
2023-05-03T18:13:18.741Z,27.39
2023-05-03T18:15:45.316Z,27.30
2023-05-03T18:18:13.465Z,27.17
2023-05-03T18:20:39.872Z,27.34
2023-05-03T18:23:06.312Z,27.25
2023-05-03T18:25:32.732Z,27.33
2023-05-03T18:28:00.643Z,27.20
2023-05-03T18:30:28.174Z,27.45
2023-05-03T18:32:55.937Z,27.55
2023-05-03T18:35:22.584Z,27.75
2023-05-03T18:37:49.072Z,27.81
2023-05-03T18:40:16.398Z,28.20
2023-05-03T18:42:42.922Z,28.29
2023-05-03T18:45:09.662Z,28.65
2023-05-03T18:47:36.221Z,28.43
2023-05-03T18:50:04.355Z,28.72
2023-05-03T18:52:31.205Z,29.26
2023-05-03T18:54:57.845Z,29.67
2023-05-03T18:58:13.584Z,29.74
2023-05-03T19:00:24.277Z,29.77
2023-05-03T19:03:09.650Z,30.09
2023-05-03T19:05:36.360Z,30.37
2023-05-03T19:08:02.940Z,30.87
2023-05-03T19:10:29.907Z,30.85
2023-05-03T19:12:57.410Z,31.08
2023-05-03T19:15:24.156Z,31.23
2023-05-03T19:17:50.596Z,31.96
2023-05-03T19:20:17.631Z,31.67
2023-05-03T19:26:25.980Z,32.17
2023-05-03T19:28:52.638Z,32.71
2023-05-03T19:31:19.151Z,32.54
2023-05-03T19:33:46.384Z,32.95
2023-05-03T19:36:14.667Z,33.06
2023-05-03T19:38:41.120Z,33.28
2023-05-03T19:41:14.846Z,33.71
2023-05-03T19:43:45.604Z,33.81
2023-05-03T19:46:20.722Z,34.14
2023-05-03T19:49:07.823Z,34.23
2023-05-03T19:51:34.543Z,34.45
2023-05-03T19:54:03.105Z,34.60
2023-05-03T19:56:29.850Z,34.87
2023-05-03T19:58:56.678Z,35.07
2023-05-03T20:01:27.534Z,35.19
2023-05-03T20:03:54.970Z,35.65
2023-05-03T20:06:34.154Z,35.81
2023-05-03T20:09:08.489Z,36.08
2023-05-03T20:11:38.122Z,36.33
2023-05-03T20:14:04.812Z,36.13
2023-05-03T20:16:38.550Z,36.46
2023-05-03T20:19:06.255Z,36.49
2023-05-03T20:21:39.859Z,36.51
2023-05-03T20:24:12.977Z,37.08
2023-05-03T20:26:39.597Z,36.69
2023-05-03T20:29:06.098Z,37.18
2023-05-03T20:31:36.761Z,37.37
2023-05-03T20:34:03.264Z,37.43
2023-05-03T20:36:29.843Z,37.60
2023-05-03T20:38:56.431Z,37.54
2023-05-03T20:41:23.201Z,37.89
2023-05-03T20:43:52.020Z,37.58
2023-05-03T20:46:18.467Z,37.94
2023-05-03T20:48:53.592Z,37.85
2023-05-03T20:51:20.209Z,38.31
2023-05-03T20:53:46.638Z,38.23
2023-05-03T20:56:14.394Z,38.38
2023-05-03T20:58:40.919Z,38.55
2023-05-03T21:01:08.159Z,38.83
2023-05-03T21:03:34.927Z,38.87
2023-05-03T21:06:01.649Z,38.96
2023-05-03T21:08:28.309Z,38.88
2023-05-03T21:10:55.055Z,39.26
2023-05-03T21:13:21.595Z,39.13
2023-05-03T21:15:48.029Z,39.16
2023-05-03T21:18:14.462Z,39.19
2023-05-03T21:20:40.905Z,39.63
2023-05-03T21:23:07.369Z,39.62
2023-05-03T21:25:33.840Z,39.25
2023-05-03T21:28:00.633Z,40.17
2023-05-03T21:30:27.740Z,40.14
2023-05-03T21:32:54.226Z,39.64
2023-05-03T21:35:20.822Z,40.33
2023-05-03T21:37:48.102Z,40.33
2023-05-03T21:40:15.322Z,40.29
2023-05-03T21:42:42.742Z,40.73
2023-05-03T21:45:10.749Z,41.05
2023-05-03T21:47:37.500Z,40.80
2023-05-03T21:50:08.176Z,40.97
2023-05-03T21:52:34.677Z,41.02
2023-05-03T21:55:01.163Z,41.15
2023-05-03T21:57:27.851Z,40.97
2023-05-03T21:59:55.962Z,41.45
2023-05-03T22:02:25.860Z,41.49
2023-05-03T22:04:52.874Z,41.26
2023-05-03T22:07:19.421Z,41.70
2023-05-03T22:09:47.420Z,41.69
2023-05-03T22:12:23.431Z,42.11
2023-05-03T22:14:50.912Z,41.99
2023-05-03T22:17:20.311Z,42.13
2023-05-03T22:19:46.871Z,42.22
2023-05-03T22:22:13.295Z,42.32
2023-05-03T22:24:40.854Z,42.49
2023-05-03T22:27:07.702Z,42.61
2023-05-03T22:29:34.159Z,42.72
2023-05-03T22:32:00.681Z,42.87
2023-05-03T22:34:27.212Z,42.58
2023-05-03T22:36:53.607Z,43.13
2023-05-03T22:39:20.043Z,43.11
2023-05-03T22:41:46.868Z,42.95
2023-05-03T22:44:13.561Z,43.22
2023-05-03T22:46:40.000Z,43.50
2023-05-03T22:49:07.332Z,43.53
2023-05-03T22:51:33.921Z,43.66
2023-05-03T22:54:00.542Z,43.70
2023-05-03T22:56:27.336Z,43.61
2023-05-03T22:58:53.713Z,43.94
2023-05-03T23:01:20.663Z,43.84
2023-05-03T23:03:47.271Z,43.99
2023-05-03T23:06:15.572Z,44.10
2023-05-03T23:08:41.978Z,44.07
2023-05-03T23:11:09.396Z,44.40
2023-05-03T23:13:35.774Z,44.65
2023-05-03T23:16:05.541Z,44.36
2023-05-03T23:18:32.076Z,44.49
2023-05-03T23:20:58.650Z,44.49
2023-05-03T23:23:25.190Z,44.84
2023-05-03T23:25:52.596Z,44.70
2023-05-03T23:28:19.457Z,44.56
2023-05-03T23:30:46.669Z,44.86
2023-05-03T23:33:13.531Z,45.12
2023-05-03T23:35:41.503Z,44.92
2023-05-03T23:38:08.022Z,44.93
2023-05-03T23:40:34.511Z,45.11
2023-05-03T23:43:00.919Z,44.83
2023-05-03T23:45:27.660Z,45.29
2023-05-03T23:47:54.218Z,45.16
2023-05-03T23:50:20.752Z,45.11
2023-05-03T23:52:47.638Z,45.08
2023-05-03T23:55:14.051Z,45.28
2023-05-03T23:58:23.193Z,45.17
